sensor_id;sensor_type;location;lat;lon;timestamp;P1;durP1;ratioP1;P2;durP2;ratioP2
32427;SDS011;18882;50.952;4.366;2024-01-10T10:20:42;13.93;;;5.30;;
32427;SDS011;18882;50.952;4.366;2024-01-10T10:31:00;13.55;;;4.65;;
32427;SDS011;18882;50.952;4.366;2024-01-10T10:34:30;14.18;;;5.72;;
32427;SDS011;18882;50.952;4.366;2024-01-10T10:37:11;11.95;;;4.60;;
32427;SDS011;18882;50.952;4.366;2024-01-10T10:40:40;13.85;;;4.63;;
32427;SDS011;18882;50.952;4.366;2024-01-10T10:43:40;20.13;;;4.82;;
32427;SDS011;18882;50.952;4.366;2024-01-10T10:46:54;13.20;;;5.05;;
32427;SDS011;18882;50.952;4.366;2024-01-10T10:50:11;11.60;;;5.50;;
32427;SDS011;18882;50.952;4.366;2024-01-10T10:53:13;15.10;;;5.43;;
32427;SDS011;18882;50.952;4.366;2024-01-10T10:59:25;13.05;;;5.10;;
32427;SDS011;18882;50.952;4.366;2024-01-10T11:02:36;13.07;;;5.32;;
32427;SDS011;18882;50.952;4.366;2024-01-10T11:08:58;9.90;;;4.47;;
32427;SDS011;18882;50.952;4.366;2024-01-10T11:52:54;17.00;;;5.28;;
32427;SDS011;18882;50.952;4.366;2024-01-10T12:51:35;15.90;;;6.40;;
32427;SDS011;18882;50.952;4.366;2024-01-10T12:54:06;22.42;;;6.85;;
32427;SDS011;18882;50.952;4.366;2024-01-10T12:56:34;14.57;;;6.00;;
32427;SDS011;18882;50.952;4.366;2024-01-10T12:59:01;14.95;;;5.72;;
32427;SDS011;18882;50.952;4.366;2024-01-10T13:01:28;15.63;;;6.32;;
32427;SDS011;18882;50.952;4.366;2024-01-10T13:03:56;14.65;;;6.13;;
32427;SDS011;18882;50.952;4.366;2024-01-10T13:06:46;16.30;;;6.50;;
32427;SDS011;18882;50.952;4.366;2024-01-10T13:30:52;22.90;;;6.82;;
32427;SDS011;18882;50.952;4.366;2024-01-10T13:41:12;20.80;;;7.88;;
32427;SDS011;18882;50.952;4.366;2024-01-10T13:44:53;19.58;;;6.95;;
32427;SDS011;18882;50.952;4.366;2024-01-10T13:47:30;16.98;;;6.72;;
32427;SDS011;18882;50.952;4.366;2024-01-10T13:50:02;19.23;;;6.80;;
32427;SDS011;18882;50.952;4.366;2024-01-10T13:52:31;15.90;;;6.38;;
32427;SDS011;18882;50.952;4.366;2024-01-10T13:54:58;16.33;;;6.72;;
32427;SDS011;18882;50.952;4.366;2024-01-10T13:57:26;27.45;;;8.00;;
32427;SDS011;18882;50.952;4.366;2024-01-10T13:59:56;15.63;;;6.57;;
32427;SDS011;18882;50.952;4.366;2024-01-10T14:02:29;26.77;;;9.43;;
32427;SDS011;18882;50.952;4.366;2024-01-10T14:04:56;16.65;;;6.90;;
32427;SDS011;18882;50.952;4.366;2024-01-10T14:07:23;23.38;;;7.82;;
32427;SDS011;18882;50.952;4.366;2024-01-10T14:09:51;16.00;;;6.50;;
32427;SDS011;18882;50.952;4.366;2024-01-10T14:12:20;17.90;;;6.72;;
32427;SDS011;18882;50.952;4.366;2024-01-10T14:18:24;20.05;;;6.63;;
32427;SDS011;18882;50.952;4.366;2024-01-10T14:25:34;16.13;;;6.57;;
32427;SDS011;18882;50.952;4.366;2024-01-10T14:28:45;16.83;;;6.43;;
32427;SDS011;18882;50.952;4.366;2024-01-10T14:32:11;20.63;;;7.32;;
32427;SDS011;18882;50.952;4.366;2024-01-10T14:35:56;14.82;;;6.85;;
32427;SDS011;18882;50.952;4.366;2024-01-10T14:43:00;16.38;;;6.53;;
32427;SDS011;18882;50.952;4.366;2024-01-10T15:15:44;16.70;;;7.22;;
32427;SDS011;18882;50.952;4.366;2024-01-10T15:22:42;23.30;;;7.43;;
32427;SDS011;18882;50.952;4.366;2024-01-10T15:29:58;21.73;;;7.22;;
32427;SDS011;18882;50.952;4.366;2024-01-10T15:40:22;22.48;;;7.15;;
32427;SDS011;18882;50.952;4.366;2024-01-10T15:47:41;18.55;;;7.22;;
32427;SDS011;18882;50.952;4.366;2024-01-10T15:51:15;20.58;;;7.25;;
32427;SDS011;18882;50.952;4.366;2024-01-10T15:53:44;20.17;;;7.82;;
32427;SDS011;18882;50.952;4.366;2024-01-10T15:56:48;15.25;;;6.80;;
32427;SDS011;18882;50.952;4.366;2024-01-10T15:59:15;17.92;;;7.65;;
32427;SDS011;18882;50.952;4.366;2024-01-10T16:01:42;19.90;;;7.10;;
32427;SDS011;18882;50.952;4.366;2024-01-10T16:04:12;15.82;;;6.78;;
32427;SDS011;18882;50.952;4.366;2024-01-10T16:06:51;28.35;;;8.57;;
32427;SDS011;18882;50.952;4.366;2024-01-10T16:09:21;23.73;;;8.02;;
32427;SDS011;18882;50.952;4.366;2024-01-10T16:11:48;21.35;;;8.50;;
32427;SDS011;18882;50.952;4.366;2024-01-10T16:14:16;19.23;;;8.02;;
32427;SDS011;18882;50.952;4.366;2024-01-10T16:16:51;23.25;;;8.23;;
32427;SDS011;18882;50.952;4.366;2024-01-10T16:19:18;20.00;;;8.23;;
32427;SDS011;18882;50.952;4.366;2024-01-10T16:21:45;23.33;;;8.45;;
32427;SDS011;18882;50.952;4.366;2024-01-10T16:24:13;19.77;;;7.75;;
32427;SDS011;18882;50.952;4.366;2024-01-10T16:26:41;24.00;;;8.60;;
32427;SDS011;18882;50.952;4.366;2024-01-10T16:29:08;26.08;;;8.20;;
32427;SDS011;18882;50.952;4.366;2024-01-10T16:31:36;23.08;;;8.20;;
32427;SDS011;18882;50.952;4.366;2024-01-10T16:34:03;26.23;;;8.70;;
32427;SDS011;18882;50.952;4.366;2024-01-10T16:36:30;26.55;;;8.95;;
32427;SDS011;18882;50.952;4.366;2024-01-10T16:38:57;26.35;;;8.45;;
32427;SDS011;18882;50.952;4.366;2024-01-10T16:44:36;25.08;;;8.95;;
32427;SDS011;18882;50.952;4.366;2024-01-10T16:47:08;27.95;;;8.32;;
32427;SDS011;18882;50.952;4.366;2024-01-10T16:53:16;29.33;;;8.05;;
32427;SDS011;18882;50.952;4.366;2024-01-10T16:58:52;24.38;;;9.05;;
32427;SDS011;18882;50.952;4.366;2024-01-10T17:01:18;23.10;;;8.80;;
32427;SDS011;18882;50.952;4.366;2024-01-10T17:03:46;24.75;;;8.88;;
32427;SDS011;18882;50.952;4.366;2024-01-10T17:06:16;21.42;;;9.05;;
32427;SDS011;18882;50.952;4.366;2024-01-10T17:08:44;22.77;;;9.52;;
32427;SDS011;18882;50.952;4.366;2024-01-10T17:11:10;28.73;;;10.60;;
32427;SDS011;18882;50.952;4.366;2024-01-10T17:13:37;31.10;;;10.38;;
32427;SDS011;18882;50.952;4.366;2024-01-10T17:16:04;25.42;;;9.30;;
32427;SDS011;18882;50.952;4.366;2024-01-10T17:18:30;23.27;;;8.90;;
32427;SDS011;18882;50.952;4.366;2024-01-10T17:20:58;27.30;;;8.55;;
32427;SDS011;18882;50.952;4.366;2024-01-10T17:23:25;25.13;;;7.57;;
32427;SDS011;18882;50.952;4.366;2024-01-10T17:25:52;20.83;;;8.50;;
32427;SDS011;18882;50.952;4.366;2024-01-10T17:28:19;28.02;;;9.50;;
32427;SDS011;18882;50.952;4.366;2024-01-10T17:30:47;25.35;;;9.38;;
32427;SDS011;18882;50.952;4.366;2024-01-10T17:33:14;26.85;;;9.48;;
32427;SDS011;18882;50.952;4.366;2024-01-10T17:35:43;20.65;;;8.05;;
32427;SDS011;18882;50.952;4.366;2024-01-10T17:38:10;30.42;;;9.38;;
32427;SDS011;18882;50.952;4.366;2024-01-10T17:40:36;21.75;;;8.40;;
32427;SDS011;18882;50.952;4.366;2024-01-10T17:43:36;25.45;;;8.80;;
32427;SDS011;18882;50.952;4.366;2024-01-10T17:46:04;31.42;;;9.00;;
32427;SDS011;18882;50.952;4.366;2024-01-10T17:48:31;28.13;;;9.73;;
32427;SDS011;18882;50.952;4.366;2024-01-10T17:50:57;28.65;;;9.98;;
32427;SDS011;18882;50.952;4.366;2024-01-10T17:53:24;28.45;;;9.73;;
32427;SDS011;18882;50.952;4.366;2024-01-10T17:55:51;31.35;;;9.45;;
32427;SDS011;18882;50.952;4.366;2024-01-10T20:35:09;32.25;;;10.85;;
32427;SDS011;18882;50.952;4.366;2024-01-10T20:37:38;31.48;;;11.85;;
32427;SDS011;18882;50.952;4.366;2024-01-10T20:40:15;33.58;;;12.85;;
32427;SDS011;18882;50.952;4.366;2024-01-10T20:42:46;36.20;;;11.52;;
32427;SDS011;18882;50.952;4.366;2024-01-10T20:45:13;46.05;;;14.30;;
32427;SDS011;18882;50.952;4.366;2024-01-10T20:47:52;38.65;;;12.55;;
32427;SDS011;18882;50.952;4.366;2024-01-10T20:50:20;39.38;;;14.07;;
32427;SDS011;18882;50.952;4.366;2024-01-10T20:52:55;50.28;;;15.45;;
32427;SDS011;18882;50.952;4.366;2024-01-10T20:55:35;52.78;;;16.48;;
32427;SDS011;18882;50.952;4.366;2024-01-10T20:58:05;58.58;;;16.42;;
32427;SDS011;18882;50.952;4.366;2024-01-10T21:00:36;59.42;;;16.67;;
32427;SDS011;18882;50.952;4.366;2024-01-10T21:03:05;54.20;;;16.98;;
32427;SDS011;18882;50.952;4.366;2024-01-10T21:05:34;42.30;;;14.13;;
32427;SDS011;18882;50.952;4.366;2024-01-10T21:08:01;46.70;;;14.25;;
